Time;durP1;ratioP1;P1;durP2;ratioP2;P2;SDS_P1;SDS_P2;PMS_P1;PMS_P2;Temp;Humidity;BMP_temperature;BMP_pressure;BME280_temperature;BME280_humidity;BME280_pressure;Samples;Min_cycle;Max_cycle;Signal;HPM_P1;HPM_P2
2022/01/01 00:02:13;;;;;;;;;;;;;;;;;;5034153;28;20020;-81
2022/01/01 00:04:42;;;;;;;;;;;;;;;;;;5025865;28;20011;-80
2022/01/01 00:07:10;;;;;;;;;;;;;;;;;;5034188;28;19920;-81
2022/01/01 00:09:38;;;;;;;;;;;;;;;;;;5034199;28;19951;-81
2022/01/01 00:12:04;;;;;;;;;;;;;;;;;;5032695;28;19913;-81
2022/01/01 00:14:29;;;;;;;;;;;;;;;;;;5034406;28;20376;-81
2022/01/01 00:16:54;;;;;;;;;;;;;;;;;;5033579;28;20458;-81
2022/01/01 00:19:38;;;;;;;;;;;;;;;;;;5037706;28;19916;-82
2022/01/01 00:22:07;;;;;;;;;;;;;;;;;;5014401;28;20357;-81
2022/01/01 00:24:35;;;;;;;;;;;;;;;;;;5014657;28;20346;-80
2022/01/01 00:27:00;;;;;;;;;;;;;;;;;;5032646;28;19924;-80
2022/01/01 00:29:28;;;;;;;;;;;;;;;;;;5016530;28;19913;-80
2022/01/01 00:31:53;;;;;;;;;;;;;;;;;;5033709;28;19917;-81
2022/01/01 00:34:24;;;;;;;;;;;;;;;;;;5033995;28;20361;-81
2022/01/01 00:36:52;;;;;;;;;;;;;;;;;;5032376;28;19917;-82
2022/01/01 00:39:23;;;;;;;;;;;;;;;;;;5013203;28;19976;-79
2022/01/01 00:41:51;;;;;;;;;;;;;;;;;;5026144;28;20262;-79
2022/01/01 00:44:16;;;;;;;;;;;;;;;;;;5032632;28;19917;-79
2022/01/01 00:46:41;;;;;;;;;;;;;;;;;;5033751;28;19971;-79
2022/01/01 00:49:10;;;;;;;;;;;;;;;;;;5035452;28;19917;-80
2022/01/01 00:51:43;;;;;;;;;;;;;;;;;;5037845;28;19917;-79
2022/01/01 00:54:14;;;;;;;;;;;;;;;;;;5037838;28;20000;-79
2022/01/01 00:56:39;;;;;;;;;;;;;;;;;;5044287;28;20087;-78
2022/01/01 00:59:04;;;;;;;;;;;;;;;;;;5041362;28;20324;-79
2022/01/01 01:01:32;;;;;;;;;;;;;;;;;;5037951;28;19928;-79
2022/01/01 01:04:05;;;;;;;;;;;;;;;;;;5036488;28;20021;-79
2022/01/01 01:06:33;;;;;;;;;;;;;;;;;;5037355;28;19921;-80
2022/01/01 01:09:00;;;;;;;;;;;;;;;;;;5050733;28;19917;-78
2022/01/01 01:11:28;;;;;;;;;;;;;;;;;;5044666;28;19913;-80
2022/01/01 01:14:07;;;;;;;;;;;;;;;;;;5056013;28;19979;-79
2022/01/01 01:16:35;;;;;;;;;;;;;;;;;;5054500;28;19975;-78
2022/01/01 01:19:00;;;;;;;;;;;;;;;;;;5043658;28;20461;-79
2022/01/01 01:21:31;;;;;;;;;;;;;;;;;;5036846;28;19916;-79
2022/01/01 01:23:59;;;;;;;;;;;;;;;;;;5037612;28;20404;-78
2022/01/01 01:26:28;;;;;;;;;;;;;;;;;;5037716;28;19969;-78
2022/01/01 01:28:57;;;;;;;;;;;;;;;;;;5037270;28;19920;-79
2022/01/01 01:31:28;;;;;;;;;;;;;;;;;;5037807;28;19997;-79
2022/01/01 01:33:54;;;;;;;;;;;;;;;;;;5037380;28;20398;-78
2022/01/01 01:36:21;;;;;;;;;;;;;;;;;;5037905;28;19967;-79
2022/01/01 01:38:47;;;;;;;;;;;;;;;;;;5057145;28;20008;-79
2022/01/01 01:41:13;;;;;;;;;;;;;;;;;;5056585;28;19964;-79
2022/01/01 01:43:40;;;;;;;;;;;;;;;;;;5037691;28;19921;-79
2022/01/01 01:46:07;;;;;;;;;;;;;;;;;;5037481;28;19998;-78
2022/01/01 01:48:37;;;;;;;;;;;;;;;;;;5037534;28;19917;-78
2022/01/01 01:51:03;;;;;;;;;;;;;;;;;;5036172;28;20267;-78
2022/01/01 01:53:30;;;;;;;;;;;;;;;;;;5036252;28;19913;-78
2022/01/01 01:55:59;;;;;;;;;;;;;;;;;;5035994;28;19917;-78
2022/01/01 01:58:24;;;;;;;;;;;;;;;;;;5036241;28;19913;-79
2022/01/01 02:01:16;;;;;;;;;;;;;;;;;;5035571;28;19927;-79
2022/01/01 02:03:40;;;;;;;;;;;;;;;;;;5036237;28;19956;-78
2022/01/01 02:06:07;;;;;;;;;;;;;;;;;;5036291;28;19921;-78
2022/01/01 02:08:33;;;;;;;;;;;;;;;;;;5035909;28;19924;-78
2022/01/01 02:11:00;;;;;;;;;;;;;;;;;;5036499;28;19913;-78
2022/01/01 02:13:32;;;;;;;;;;;;;;;;;;5054150;28;20337;-79
2022/01/01 02:18:48;;;;;;;;;;;;;;;;;;5035885;28;19957;-79
2022/01/01 02:21:13;;;;;;;;;;;;;;;;;;5055606;28;19916;-79
2022/01/01 02:23:44;;;;;;;;;;;;;;;;;;5054898;28;19912;-78
2022/01/01 02:26:11;;;;;;;;;;;;;;;;;;5036532;28;20258;-79
2022/01/01 02:28:37;;;;;;;;;;;;;;;;;;5036860;28;19921;-78
2022/01/01 02:31:02;;;;;;;;;;;;;;;;;;5054515;28;20294;-78
2022/01/01 02:33:38;;;;;;;;;;;;;;;;;;5054430;28;20504;-78
2022/01/01 02:36:04;;;;;;;;;;;;;;;;;;5053775;28;19917;-79
2022/01/01 02:38:31;;;;;;;;;;;;;;;;;;5055343;28;19920;-78
2022/01/01 02:40:57;;;;;;;;;;;;;;;;;;5048013;28;20322;-79
2022/01/01 02:43:22;;;;;;;;;;;;;;;;;;5016292;28;19917;-79
2022/01/01 02:45:49;;;;;;;;;;;;;;;;;;5022921;28;19920;-79
2022/01/01 02:48:14;;;;;;;;;;;;;;;;;;5056019;28;19912;-78
2022/01/01 02:50:42;;;;;;;;;;;;;;;;;;5054462;28;19943;-81
2022/01/01 02:53:11;;;;;;;;;;;;;;;;;;5055988;28;19928;-79
2022/01/01 02:55:38;;;;;;;;;;;;;;;;;;5053924;28;19913;-80
2022/01/01 02:58:04;;;;;;;;;;;;;;;;;;5035996;28;19917;-79
2022/01/01 03:00:31;;;;;;;;;;;;;;;;;;5034608;28;20408;-80
2022/01/01 03:02:56;;;;;;;;;;;;;;;;;;5036132;28;19917;-79
2022/01/01 03:05:21;;;;;;;;;;;;;;;;;;5037558;28;19927;-80
2022/01/01 03:07:47;;;;;;;;;;;;;;;;;;5055059;28;19917;-79
2022/01/01 03:10:14;;;;;;;;;;;;;;;;;;5048715;28;19923;-80
2022/01/01 03:12:41;;;;;;;;;;;;;;;;;;5034727;28;19917;-79
2022/01/01 03:15:09;;;;;;;;;;;;;;;;;;5042692;28;20004;-79
2022/01/01 03:17:35;;;;;;;;;;;;;;;;;;5053379;28;19913;-80
2022/01/01 03:20:05;;;;;;;;;;;;;;;;;;5035666;28;19932;-80
2022/01/01 03:22:30;;;;;;;;;;;;;;;;;;5034360;28;20011;-80
2022/01/01 03:24:56;;;;;;;;;;;;;;;;;;5040328;28;20311;-80
2022/01/01 03:27:21;;;;;;;;;;;;;;;;;;5055065;28;19924;-80
2022/01/01 03:29:46;;;;;;;;;;;;;;;;;;5050040;28;19962;-80
2022/01/01 03:32:15;;;;;;;;;;;;;;;;;;5035245;28;20002;-80
2022/01/01 03:34:41;;;;;;;;;;;;;;;;;;5035240;28;19923;-80
2022/01/01 03:37:06;;;;;;;;;;;;;;;;;;5034178;28;19917;-80
2022/01/01 03:39:36;;;;;;;;;;;;;;;;;;5035035;28;19931;-80
2022/01/01 03:42:06;;;;;;;;;;;;;;;;;;5034992;28;19944;-80
2022/01/01 03:44:31;;;;;;;;;;;;;;;;;;5035152;28;19921;-80
2022/01/01 03:47:09;;;;;;;;;;;;;;;;;;5034742;28;19963;-80
2022/01/01 03:49:34;;;;;;;;;;;;;;;;;;5041848;28;19917;-80
2022/01/01 03:52:02;;;;;;;;;;;;;;;;;;5054745;28;19923;-80
2022/01/01 03:54:28;;;;;;;;;;;;;;;;;;5046037;28;20380;-80
2022/01/01 03:56:56;;;;;;;;;;;;;;;;;;5046333;28;20030;-81
2022/01/01 03:59:26;;;;;;;;;;;;;;;;;;5047917;28;20003;-80
2022/01/01 04:01:52;;;;;;;;;;;;;;;;;;5044306;28;19924;-81
2022/01/01 04:04:17;;;;;;;;;;;;;;;;;;5035019;28;20004;-81
2022/01/01 04:06:45;;;;;;;;;;;;;;;;;;5013590;28;19933;-80
2022/01/01 04:09:15;;;;;;;;;;;;;;;;;;5031453;28;19916;-80
2022/01/01 04:11:40;;;;;;;;;;;;;;;;;;5033813;28;19925;-80
2022/01/01 04:14:11;;;;;;;;;;;;;;;;;;5034277;28;20236;-81
2022/01/01 04:16:36;;;;;;;;;;;;;;;;;;5035727;28;19920;-81
2022/01/01 04:19:02;;;;;;;;;;;;;;;;;;5035023;28;19936;-81
2022/01/01 04:21:27;;;;;;;;;;;;;;;;;;5051540;28;20426;-80
2022/01/01 04:23:53;;;;;;;;;;;;;;;;;;5032443;28;20246;-80
2022/01/01 04:26:18;;;;;;;;;;;;;;;;;;5032001;28;19924;-81
2022/01/01 04:28:46;;;;;;;;;;;;;;;;;;5033651;28;19943;-81
2022/01/01 04:31:15;;;;;;;;;;;;;;;;;;5034190;28;20004;-81
2022/01/01 04:33:45;;;;;;;;;;;;;;;;;;5034438;28;19948;-81
2022/01/01 04:36:11;;;;;;;;;;;;;;;;;;5034259;28;19928;-80
2022/01/01 04:38:37;;;;;;;;;;;;;;;;;;5034443;28;19931;-80
2022/01/01 04:41:21;;;;;;;;;;;;;;;;;;5019703;28;19922;-80
2022/01/01 04:43:49;;;;;;;;;;;;;;;;;;5014474;28;20361;-80
2022/01/01 04:46:14;;;;;;;;;;;;;;;;;;4998135;28;19918;-80
2022/01/01 04:48:40;;;;;;;;;;;;;;;;;;5014886;28;20254;-80
2022/01/01 04:51:11;;;;;;;;;;;;;;;;;;5017189;28;19917;-80
2022/01/01 04:53:43;;;;;;;;;;;;;;;;;;5014029;28;20274;-80
2022/01/01 04:56:09;;;;;;;;;;;;;;;;;;5014650;28;19949;-80
2022/01/01 04:58:37;;;;;;;;;;;;;;;;;;4997065;28;19945;-80
2022/01/01 05:01:07;;;;;;;;;;;;;;;;;;4993510;28;19975;-80
2022/01/01 05:03:32;;;;;;;;;;;;;;;;;;5010316;28;19978;-81
2022/01/01 05:05:57;;;;;;;;;;;;;;;;;;5013183;28;19957;-81
2022/01/01 05:08:24;;;;;;;;;;;;;;;;;;5013143;28;19921;-80
2022/01/01 05:10:52;;;;;;;;;;;;;;;;;;5013220;28;19914;-79
2022/01/01 05:13:19;;;;;;;;;;;;;;;;;;5014315;28;19932;-80
2022/01/01 05:15:44;;;;;;;;;;;;;;;;;;4997497;28;19924;-80
2022/01/01 05:18:10;;;;;;;;;;;;;;;;;;5014252;28;19950;-80
2022/01/01 05:20:38;;;;;;;;;;;;;;;;;;5014005;28;20470;-80
2022/01/01 05:23:06;;;;;;;;;;;;;;;;;;4997363;28;19922;-80
2022/01/01 05:25:33;;;;;;;;;;;;;;;;;;5013800;28;19917;-80
2022/01/01 05:28:00;;;;;;;;;;;;;;;;;;5013742;28;19917;-80
2022/01/01 05:30:30;;;;;;;;;;;;;;;;;;5013910;28;19914;-80
2022/01/01 05:32:57;;;;;;;;;;;;;;;;;;5013679;28;19921;-80
2022/01/01 05:35:23;;;;;;;;;;;;;;;;;;4998123;28;19917;-80
2022/01/01 05:37:48;;;;;;;;;;;;;;;;;;5017725;28;19964;-80
2022/01/01 05:40:16;;;;;;;;;;;;;;;;;;4994898;28;19956;-80
2022/01/01 05:42:43;;;;;;;;;;;;;;;;;;5019934;28;19974;-80
2022/01/01 05:45:09;;;;;;;;;;;;;;;;;;5036978;28;19943;-81
2022/01/01 05:47:36;;;;;;;;;;;;;;;;;;5043833;28;20012;-80
2022/01/01 05:50:04;;;;;;;;;;;;;;;;;;5048148;28;19928;-81
2022/01/01 05:52:31;;;;;;;;;;;;;;;;;;5049867;28;19975;-80
2022/01/01 05:54:56;;;;;;;;;;;;;;;;;;5034893;28;19921;-80
2022/01/01 05:57:24;;;;;;;;;;;;;;;;;;5037162;28;19917;-80
2022/01/01 05:59:52;;;;;;;;;;;;;;;;;;5035951;28;20238;-80
2022/01/01 06:02:17;;;;;;;;;;;;;;;;;;5041924;28;19927;-80
2022/01/01 06:04:42;;;;;;;;;;;;;;;;;;5056640;28;20383;-80
2022/01/01 06:07:07;;;;;;;;;;;;;;;;;;5052961;28;19920;-80
2022/01/01 06:09:33;;;;;;;;;;;;;;;;;;5036462;28;20407;-80
2022/01/01 06:12:00;;;;;;;;;;;;;;;;;;5038058;28;19940;-80
2022/01/01 06:14:26;;;;;;;;;;;;;;;;;;5056761;28;19913;-80
2022/01/01 06:16:51;;;;;;;;;;;;;;;;;;5054418;28;19913;-80
2022/01/01 06:19:19;;;;;;;;;;;;;;;;;;5035862;28;19921;-80
2022/01/01 06:21:46;;;;;;;;;;;;;;;;;;5036701;28;19960;-79
2022/01/01 06:24:11;;;;;;;;;;;;;;;;;;5036446;28;20252;-81
2022/01/01 06:26:37;;;;;;;;;;;;;;;;;;5036203;28;19925;-80
2022/01/01 06:29:02;;;;;;;;;;;;;;;;;;5036323;28;19919;-80
2022/01/01 06:31:28;;;;;;;;;;;;;;;;;;5046008;28;19921;-80
2022/01/01 06:33:53;;;;;;;;;;;;;;;;;;5036296;28;19912;-81
2022/01/01 06:36:18;;;;;;;;;;;;;;;;;;5035089;28;19917;-80
2022/01/01 06:38:46;;;;;;;;;;;;;;;;;;5036385;28;19924;-82
2022/01/01 06:41:13;;;;;;;;;;;;;;;;;;5020849;28;19921;-81
2022/01/01 06:43:39;;;;;;;;;;;;;;;;;;5015793;28;19917;-80
2022/01/01 06:46:09;;;;;;;;;;;;;;;;;;4999074;28;19939;-80
2022/01/01 06:48:35;;;;;;;;;;;;;;;;;;5035606;28;20346;-80
2022/01/01 06:51:02;;;;;;;;;;;;;;;;;;5036125;28;19913;-80
2022/01/01 06:53:27;;;;;;;;;;;;;;;;;;5035380;28;19925;-80
2022/01/01 06:55:59;;;;;;;;;;;;;;;;;;4999809;28;19918;-81
2022/01/01 06:58:29;;;;;;;;;;;;;;;;;;5016023;28;20335;-81
2022/01/01 07:00:58;;;;;;;;;;;;;;;;;;5016427;28;19956;-81
2022/01/01 07:03:26;;;;;;;;;;;;;;;;;;5017951;28;20346;-81
2022/01/01 07:05:51;;;;;;;;;;;;;;;;;;5034882;28;19928;-81
2022/01/01 07:08:16;;;;;;;;;;;;;;;;;;5009016;28;20354;-81
2022/01/01 07:10:44;;;;;;;;;;;;;;;;;;5015998;28;19933;-80
2022/01/01 07:13:14;;;;;;;;;;;;;;;;;;5015838;28;19917;-80
2022/01/01 07:15:39;;;;;;;;;;;;;;;;;;5016320;28;19913;-81
2022/01/01 07:18:07;;;;;;;;;;;;;;;;;;4982086;28;19917;-81
2022/01/01 07:20:34;;;;;;;;;;;;;;;;;;5015871;28;19913;-80
2022/01/01 07:23:00;;;;;;;;;;;;;;;;;;5015281;28;19917;-80
2022/01/01 07:25:28;;;;;;;;;;;;;;;;;;5017019;28;19918;-80
2022/01/01 07:27:56;;;;;;;;;;;;;;;;;;4998042;28;19924;-80
2022/01/01 07:30:23;;;;;;;;;;;;;;;;;;5015283;28;19923;-80
2022/01/01 07:32:49;;;;;;;;;;;;;;;;;;5017979;28;20338;-80
2022/01/01 07:35:17;;;;;;;;;;;;;;;;;;5035125;28;19952;-81
2022/01/01 07:37:42;;;;;;;;;;;;;;;;;;5034793;28;20261;-80
2022/01/01 07:40:08;;;;;;;;;;;;;;;;;;5011362;28;20007;-80
2022/01/01 07:42:33;;;;;;;;;;;;;;;;;;5035042;28;19916;-80
2022/01/01 07:45:01;;;;;;;;;;;;;;;;;;5034924;28;19917;-80
2022/01/01 07:47:29;;;;;;;;;;;;;;;;;;5035120;28;19913;-80
2022/01/01 07:49:57;;;;;;;;;;;;;;;;;;5018108;28;20262;-81
2022/01/01 07:52:22;;;;;;;;;;;;;;;;;;5033545;28;19917;-81
2022/01/01 07:54:47;;;;;;;;;;;;;;;;;;5035016;28;20067;-80
2022/01/01 07:57:14;;;;;;;;;;;;;;;;;;5034266;28;19943;-81
2022/01/01 07:59:40;;;;;;;;;;;;;;;;;;5051844;28;19917;-79
2022/01/01 08:02:07;;;;;;;;;;;;;;;;;;5037391;28;19917;-80
2022/01/01 08:04:35;;;;;;;;;;;;;;;;;;5039070;28;19916;-80
2022/01/01 08:07:03;;;;;;;;;;;;;;;;;;5037234;28;20349;-80
2022/01/01 08:09:31;;;;;;;;;;;;;;;;;;5049091;28;19921;-80
2022/01/01 08:11:58;;;;;;;;;;;;;;;;;;5015480;28;19913;-80
2022/01/01 08:14:23;;;;;;;;;;;;;;;;;;5019853;28;19925;-80
2022/01/01 08:16:56;;;;;;;;;;;;;;;;;;5034265;28;19913;-80
2022/01/01 08:19:21;;;;;;;;;;;;;;;;;;5033264;28;19971;-80
2022/01/01 08:21:46;;;;;;;;;;;;;;;;;;5035242;28;19925;-79
2022/01/01 08:24:14;;;;;;;;;;;;;;;;;;5034313;28;19979;-80
2022/01/01 08:26:39;;;;;;;;;;;;;;;;;;5035205;28;19920;-80
2022/01/01 08:29:07;;;;;;;;;;;;;;;;;;5034217;28;19913;-80
2022/01/01 08:31:32;;;;;;;;;;;;;;;;;;5041384;28;20354;-79
2022/01/01 08:34:02;;;;;;;;;;;;;;;;;;5054077;28;19956;-80
2022/01/01 08:36:27;;;;;;;;;;;;;;;;;;5045796;28;19928;-79
2022/01/01 08:38:52;;;;;;;;;;;;;;;;;;5034070;28;20464;-80
2022/01/01 08:41:17;;;;;;;;;;;;;;;;;;5034329;28;20396;-79
2022/01/01 08:43:43;;;;;;;;;;;;;;;;;;5034051;28;19913;-80
2022/01/01 08:46:08;;;;;;;;;;;;;;;;;;5038429;28;19931;-79
2022/01/01 08:48:33;;;;;;;;;;;;;;;;;;5054076;28;19923;-80
2022/01/01 08:50:58;;;;;;;;;;;;;;;;;;5052436;28;19923;-80
2022/01/01 08:53:24;;;;;;;;;;;;;;;;;;5045712;28;20004;-79
2022/01/01 08:55:52;;;;;;;;;;;;;;;;;;5033924;28;20401;-79
2022/01/01 08:58:19;;;;;;;;;;;;;;;;;;5039227;28;20418;-79
2022/01/01 09:00:47;;;;;;;;;;;;;;;;;;5052918;28;20476;-79
2022/01/01 09:03:12;;;;;;;;;;;;;;;;;;5048010;28;19920;-80
2022/01/01 09:05:37;;;;;;;;;;;;;;;;;;5032418;28;20255;-79
2022/01/01 09:08:06;;;;;;;;;;;;;;;;;;5043552;28;20342;-79
2022/01/01 09:10:33;;;;;;;;;;;;;;;;;;5048124;28;19913;-79
2022/01/01 09:12:58;;;;;;;;;;;;;;;;;;5046332;28;19920;-79
2022/01/01 09:15:24;;;;;;;;;;;;;;;;;;5048236;28;19928;-80
2022/01/01 09:17:51;;;;;;;;;;;;;;;;;;5036783;28;19913;-79
2022/01/01 09:20:17;;;;;;;;;;;;;;;;;;5043368;28;19921;-79
2022/01/01 09:22:42;;;;;;;;;;;;;;;;;;5057487;28;20326;-80
2022/01/01 09:25:07;;;;;;;;;;;;;;;;;;5055929;28;19929;-80
2022/01/01 09:27:33;;;;;;;;;;;;;;;;;;5057647;28;20003;-79
2022/01/01 09:29:58;;;;;;;;;;;;;;;;;;5046991;28;20273;-79
2022/01/01 09:32:25;;;;;;;;;;;;;;;;;;5037585;28;20024;-80
2022/01/01 09:34:55;;;;;;;;;;;;;;;;;;5040609;28;19923;-80
2022/01/01 09:37:20;;;;;;;;;;;;;;;;;;5043098;28;19921;-80
2022/01/01 09:39:48;;;;;;;;;;;;;;;;;;5034848;28;20591;-81
2022/01/01 09:42:15;;;;;;;;;;;;;;;;;;5017681;28;19913;-81
2022/01/01 09:44:41;;;;;;;;;;;;;;;;;;5000547;28;19940;-81
2022/01/01 09:47:08;;;;;;;;;;;;;;;;;;5017482;28;19917;-81
2022/01/01 09:49:34;;;;;;;;;;;;;;;;;;5017624;28;20012;-80
2022/01/01 09:52:01;;;;;;;;;;;;;;;;;;5000393;28;20377;-81
2022/01/01 09:54:31;;;;;;;;;;;;;;;;;;5029719;28;19928;-80
2022/01/01 09:56:57;;;;;;;;;;;;;;;;;;5033793;28;19928;-81
2022/01/01 09:59:22;;;;;;;;;;;;;;;;;;5021156;28;19917;-81
2022/01/01 10:01:49;;;;;;;;;;;;;;;;;;5000142;28;19917;-81
2022/01/01 10:04:15;;;;;;;;;;;;;;;;;;5017396;28;20282;-80
2022/01/01 10:06:40;;;;;;;;;;;;;;;;;;4999865;28;19918;-81
2022/01/01 10:09:09;;;;;;;;;;;;;;;;;;5007984;28;19913;-81
2022/01/01 10:11:34;;;;;;;;;;;;;;;;;;5003514;28;20313;-80
2022/01/01 10:14:03;;;;;;;;;;;;;;;;;;4999935;28;20016;-80
2022/01/01 10:16:31;;;;;;;;;;;;;;;;;;5017022;28;19917;-81
2022/01/01 10:18:57;;;;;;;;;;;;;;;;;;5023538;28;19917;-80
2022/01/01 10:21:24;;;;;;;;;;;;;;;;;;5036258;28;20319;-80
2022/01/01 10:23:51;;;;;;;;;;;;;;;;;;5035914;28;19968;-80
2022/01/01 10:29:16;;;;;;;;;;;;;;;;;;5002158;28;19921;-80
2022/01/01 10:32:03;;;;;;;;;;;;;;;;;;5024888;28;20346;-80
2022/01/01 10:34:29;;;;;;;;;;;;;;;;;;5036790;28;19925;-81
2022/01/01 10:37:07;;;;;;;;;;;;;;;;;;5034479;28;20492;-81
2022/01/01 10:39:51;;;;;;;;;;;;;;;;;;5018948;28;19956;-80
2022/01/01 10:42:24;;;;;;;;;;;;;;;;;;5050648;28;19917;-79
2022/01/01 10:44:56;;;;;;;;;;;;;;;;;;5052489;28;19913;-81
2022/01/01 10:47:30;;;;;;;;;;;;;;;;;;5018782;28;19924;-80
2022/01/01 10:50:14;;;;;;;;;;;;;;;;;;5035487;28;19917;-81
2022/01/01 10:52:45;;;;;;;;;;;;;;;;;;5038539;28;19913;-79
2022/01/01 10:55:10;;;;;;;;;;;;;;;;;;5036492;28;19929;-80
2022/01/01 10:57:44;;;;;;;;;;;;;;;;;;5039705;28;20001;-79
2022/01/01 11:00:11;;;;;;;;;;;;;;;;;;5035063;28;19925;-80
2022/01/01 11:02:37;;;;;;;;;;;;;;;;;;5034736;28;19940;-79
2022/01/01 11:05:03;;;;;;;;;;;;;;;;;;5024691;28;20370;-82
2022/01/01 11:07:29;;;;;;;;;;;;;;;;;;5035485;28;19913;-81
2022/01/01 11:09:59;;;;;;;;;;;;;;;;;;5011041;28;19932;-83
2022/01/01 11:12:37;;;;;;;;;;;;;;;;;;5026758;28;19921;-82
2022/01/01 11:15:03;;;;;;;;;;;;;;;;;;5027796;28;19917;-80
2022/01/01 11:17:32;;;;;;;;;;;;;;;;;;5032555;28;19944;-81
2022/01/01 11:20:02;;;;;;;;;;;;;;;;;;5028293;28;19928;-82
2022/01/01 11:22:28;;;;;;;;;;;;;;;;;;5029352;28;20341;-81
2022/01/01 11:24:53;;;;;;;;;;;;;;;;;;5024936;28;19917;-81
2022/01/01 11:27:18;;;;;;;;;;;;;;;;;;5031526;28;20028;-81
2022/01/01 11:29:56;;;;;;;;;;;;;;;;;;5029992;28;19976;-82
2022/01/01 11:32:22;;;;;;;;;;;;;;;;;;5033258;28;19928;-81
2022/01/01 11:34:50;;;;;;;;;;;;;;;;;;5032385;28;20197;-81
2022/01/01 11:37:18;;;;;;;;;;;;;;;;;;5017831;28;19913;-80
2022/01/01 11:39:43;;;;;;;;;;;;;;;;;;5028415;28;19929;-82
2022/01/01 11:42:15;;;;;;;;;;;;;;;;;;5044664;28;19918;-84
2022/01/01 11:44:55;;;;;;;;;;;;;;;;;;5079678;28;19947;-83
2022/01/01 11:47:24;;;;;;;;;;;;;;;;;;5079772;28;19917;-82
2022/01/01 11:49:53;;;;;;;;;;;;;;;;;;5056912;28;20272;-81
2022/01/01 11:52:36;;;;;;;;;;;;;;;;;;5073836;28;20345;-80
2022/01/01 11:55:04;;;;;;;;;;;;;;;;;;5074651;28;19943;-82
2022/01/01 11:57:30;;;;;;;;;;;;;;;;;;5060364;28;19939;-80
2022/01/01 12:00:02;;;;;;;;;;;;;;;;;;5070897;28;19932;-80
2022/01/01 12:02:32;;;;;;;;;;;;;;;;;;5074571;28;19912;-83
2022/01/01 12:05:06;;;;;;;;;;;;;;;;;;5072492;28;19975;-81
2022/01/01 12:07:32;;;;;;;;;;;;;;;;;;5069913;28;19916;-82
2022/01/01 12:10:00;;;;;;;;;;;;;;;;;;5063432;28;19916;-80
2022/01/01 12:12:35;;;;;;;;;;;;;;;;;;5078031;28;20015;-83
2022/01/01 12:15:00;;;;;;;;;;;;;;;;;;5079161;28;20429;-80
2022/01/01 12:17:28;;;;;;;;;;;;;;;;;;5075556;28;19999;-80
2022/01/01 12:19:56;;;;;;;;;;;;;;;;;;5059985;28;20435;-80
2022/01/01 12:22:24;;;;;;;;;;;;;;;;;;5080823;28;20353;-80
2022/01/01 12:24:54;;;;;;;;;;;;;;;;;;5059893;28;19939;-84
2022/01/01 12:27:21;;;;;;;;;;;;;;;;;;5076186;28;19920;-86
2022/01/01 12:29:55;;;;;;;;;;;;;;;;;;5071443;28;19920;-82
2022/01/01 12:32:36;;;;;;;;;;;;;;;;;;5066297;28;19917;-84
2022/01/01 12:35:10;;;;;;;;;;;;;;;;;;5044736;28;19916;-83
2022/01/01 12:37:36;;;;;;;;;;;;;;;;;;5057041;28;19916;-83
2022/01/01 12:40:04;;;;;;;;;;;;;;;;;;5076416;28;19946;-81
2022/01/01 12:42:35;;;;;;;;;;;;;;;;;;5054439;28;19927;-79
2022/01/01 12:45:02;;;;;;;;;;;;;;;;;;5053182;28;19956;-80
2022/01/01 12:47:28;;;;;;;;;;;;;;;;;;5078751;28;20411;-80
2022/01/01 12:49:53;;;;;;;;;;;;;;;;;;5030442;28;19917;-80
2022/01/01 12:52:25;;;;;;;;;;;;;;;;;;5058548;28;20269;-80
2022/01/01 12:54:52;;;;;;;;;;;;;;;;;;5065241;28;19925;-82
2022/01/01 12:57:18;;;;;;;;;;;;;;;;;;5028965;28;19969;-80
2022/01/01 12:59:45;;;;;;;;;;;;;;;;;;5045644;28;20001;-79
2022/01/01 13:02:10;;;;;;;;;;;;;;;;;;5030955;28;19932;-79
2022/01/01 13:04:40;;;;;;;;;;;;;;;;;;5039525;28;20281;-78
2022/01/01 13:07:06;;;;;;;;;;;;;;;;;;5033729;28;20373;-79
2022/01/01 13:09:31;;;;;;;;;;;;;;;;;;5056830;28;19917;-80
2022/01/01 13:12:07;;;;;;;;;;;;;;;;;;5061223;28;20395;-80
2022/01/01 13:14:33;;;;;;;;;;;;;;;;;;5038202;28;19917;-81
2022/01/01 13:17:02;;;;;;;;;;;;;;;;;;5061677;28;20011;-80
2022/01/01 13:22:19;;;;;;;;;;;;;;;;;;5019377;28;19916;-83
2022/01/01 13:24:47;;;;;;;;;;;;;;;;;;5043749;28;19932;-83
2022/01/01 13:27:15;;;;;;;;;;;;;;;;;;5036135;28;20003;-81
2022/01/01 13:29:43;;;;;;;;;;;;;;;;;;5041411;28;20011;-81
2022/01/01 13:32:09;;;;;;;;;;;;;;;;;;5026747;28;19933;-83
2022/01/01 13:34:39;;;;;;;;;;;;;;;;;;5042056;28;20306;-81
2022/01/01 13:37:14;;;;;;;;;;;;;;;;;;5042104;28;19916;-82
2022/01/01 13:39:41;;;;;;;;;;;;;;;;;;5055546;28;20282;-82
2022/01/01 13:42:10;;;;;;;;;;;;;;;;;;5055437;28;19924;-82
2022/01/01 13:44:40;;;;;;;;;;;;;;;;;;5056841;28;20013;-82
2022/01/01 13:47:15;;;;;;;;;;;;;;;;;;5038653;28;20011;-81
2022/01/01 13:49:45;;;;;;;;;;;;;;;;;;5018624;28;19916;-83
2022/01/01 13:52:15;;;;;;;;;;;;;;;;;;5041279;28;20345;-80
2022/01/01 13:54:43;;;;;;;;;;;;;;;;;;5056784;28;19978;-79
2022/01/01 13:57:11;;;;;;;;;;;;;;;;;;5042584;28;19920;-80
2022/01/01 13:59:36;;;;;;;;;;;;;;;;;;5030277;28;20303;-81
2022/01/01 14:02:09;;;;;;;;;;;;;;;;;;5053133;28;19982;-79
2022/01/01 14:04:38;;;;;;;;;;;;;;;;;;5058848;28;20419;-80
2022/01/01 14:07:04;;;;;;;;;;;;;;;;;;5033241;28;19920;-78
2022/01/01 14:09:34;;;;;;;;;;;;;;;;;;5037726;28;19923;-79
2022/01/01 14:11:59;;;;;;;;;;;;;;;;;;5045292;28;19923;-79
2022/01/01 14:14:32;;;;;;;;;;;;;;;;;;5029596;28;20339;-80
2022/01/01 14:17:06;;;;;;;;;;;;;;;;;;5053673;28;19916;-80
2022/01/01 14:19:33;;;;;;;;;;;;;;;;;;5057412;28;19921;-80
2022/01/01 14:22:06;;;;;;;;;;;;;;;;;;5056795;28;19955;-80
2022/01/01 14:24:34;;;;;;;;;;;;;;;;;;5045803;28;19979;-81
2022/01/01 14:27:05;;;;;;;;;;;;;;;;;;5061156;28;19931;-82
2022/01/01 14:29:33;;;;;;;;;;;;;;;;;;5046760;28;19916;-80
2022/01/01 14:31:58;;;;;;;;;;;;;;;;;;5045533;28;19974;-81
2022/01/01 14:34:24;;;;;;;;;;;;;;;;;;5060288;28;19925;-81
2022/01/01 14:36:54;;;;;;;;;;;;;;;;;;5040592;28;20019;-80
2022/01/01 14:39:24;;;;;;;;;;;;;;;;;;5058802;28;20350;-80
2022/01/01 14:41:50;;;;;;;;;;;;;;;;;;5029651;28;19916;-80
2022/01/01 14:44:19;;;;;;;;;;;;;;;;;;5052948;28;19957;-82
2022/01/01 14:46:50;;;;;;;;;;;;;;;;;;5036799;28;19921;-79
2022/01/01 14:49:27;;;;;;;;;;;;;;;;;;5034626;28;19952;-82
2022/01/01 14:52:06;;;;;;;;;;;;;;;;;;5040873;28;20007;-81
2022/01/01 14:54:42;;;;;;;;;;;;;;;;;;5055532;28;19922;-81
2022/01/01 14:57:07;;;;;;;;;;;;;;;;;;5044579;28;19932;-79
2022/01/01 14:59:34;;;;;;;;;;;;;;;;;;5041018;28;19917;-81
2022/01/01 15:02:02;;;;;;;;;;;;;;;;;;5040203;28;19913;-82
2022/01/01 15:04:29;;;;;;;;;;;;;;;;;;5022571;28;20329;-81
2022/01/01 15:06:55;;;;;;;;;;;;;;;;;;5036165;28;19928;-82
2022/01/01 15:09:22;;;;;;;;;;;;;;;;;;5022135;28;19917;-81
2022/01/01 15:11:50;;;;;;;;;;;;;;;;;;5031480;28;19921;-80
2022/01/01 15:14:15;;;;;;;;;;;;;;;;;;5039329;28;19923;-81
2022/01/01 15:16:46;;;;;;;;;;;;;;;;;;5021030;28;19999;-80
2022/01/01 15:19:19;;;;;;;;;;;;;;;;;;5014632;28;19925;-80
2022/01/01 15:22:09;;;;;;;;;;;;;;;;;;5012318;28;19914;-80
2022/01/01 15:24:42;;;;;;;;;;;;;;;;;;5013425;28;19917;-80
2022/01/01 15:27:09;;;;;;;;;;;;;;;;;;5040902;28;19924;-80
2022/01/01 15:37:59;;;;;;;;;;;;;;;;;;5028105;28;19932;-80
2022/01/01 15:40:30;;;;;;;;;;;;;;;;;;5030484;28;20008;-79
2022/01/01 15:42:58;;;;;;;;;;;;;;;;;;5036456;28;20039;-82
2022/01/01 15:45:25;;;;;;;;;;;;;;;;;;5039342;28;19929;-82
2022/01/01 15:47:53;;;;;;;;;;;;;;;;;;5054618;28;19917;-81
2022/01/01 15:50:21;;;;;;;;;;;;;;;;;;5044119;28;19916;-82
2022/01/01 15:52:46;;;;;;;;;;;;;;;;;;5055772;28;19916;-81
2022/01/01 15:55:20;;;;;;;;;;;;;;;;;;5059915;28;19916;-80
2022/01/01 15:57:56;;;;;;;;;;;;;;;;;;5037813;28;20645;-82
2022/01/01 16:00:22;;;;;;;;;;;;;;;;;;5054526;28;19967;-79
2022/01/01 16:03:08;;;;;;;;;;;;;;;;;;5056211;28;19916;-79
2022/01/01 16:05:37;;;;;;;;;;;;;;;;;;5061231;28;20018;-80
2022/01/01 16:08:09;;;;;;;;;;;;;;;;;;5042201;28;19993;-81
2022/01/01 16:10:37;;;;;;;;;;;;;;;;;;5034731;28;19913;-82
2022/01/01 16:13:04;;;;;;;;;;;;;;;;;;5057732;28;20350;-80
2022/01/01 16:15:30;;;;;;;;;;;;;;;;;;5034078;28;19917;-78
2022/01/01 16:17:58;;;;;;;;;;;;;;;;;;5057910;28;20383;-80
2022/01/01 16:20:23;;;;;;;;;;;;;;;;;;5061424;28;20023;-81
2022/01/01 16:22:49;;;;;;;;;;;;;;;;;;5058826;28;20009;-81
2022/01/01 16:25:16;;;;;;;;;;;;;;;;;;5047694;28;19916;-82
2022/01/01 16:27:44;;;;;;;;;;;;;;;;;;5058059;28;19952;-83
2022/01/01 16:30:10;;;;;;;;;;;;;;;;;;5020456;28;20398;-82
2022/01/01 16:32:38;;;;;;;;;;;;;;;;;;5063495;28;20004;-83
2022/01/01 16:35:06;;;;;;;;;;;;;;;;;;5045553;28;19966;-82
2022/01/01 16:37:31;;;;;;;;;;;;;;;;;;5053304;28;19924;-84
2022/01/01 16:39:58;;;;;;;;;;;;;;;;;;5058796;28;19925;-81
2022/01/01 16:42:30;;;;;;;;;;;;;;;;;;5054070;28;19924;-80
2022/01/01 16:44:55;;;;;;;;;;;;;;;;;;5042779;28;19924;-80
2022/01/01 16:47:23;;;;;;;;;;;;;;;;;;5041142;28;19917;-80
2022/01/01 16:50:02;;;;;;;;;;;;;;;;;;5059744;28;20266;-80
2022/01/01 16:53:03;;;;;;;;;;;;;;;;;;5045491;28;19950;-81
2022/01/01 16:55:34;;;;;;;;;;;;;;;;;;4968965;28;19926;-83
2022/01/01 16:58:05;;;;;;;;;;;;;;;;;;4965725;28;19922;-81
2022/01/01 17:00:33;;;;;;;;;;;;;;;;;;4966102;28;19926;-80
2022/01/01 17:02:59;;;;;;;;;;;;;;;;;;4968876;28;19922;-82
2022/01/01 17:05:31;;;;;;;;;;;;;;;;;;4963612;28;19926;-80
2022/01/01 17:07:57;;;;;;;;;;;;;;;;;;4958024;28;20041;-79
2022/01/01 17:10:27;;;;;;;;;;;;;;;;;;4958120;28;19913;-80